^^

..:: Storico WU ::..




Lo storico viene creato da WUnderground con i dati che la stazione Meteomincio invia al loro server. L' aggiornamento viene fatto ogni 5 minuti circa, tuttavia possono esserci intervalli pił ampi a causa di errori, interruzioni di servizio o problemi nell' invio tramite FTP.


Storico stazione MeteoMincio
Giorno Sommario per Dicembre 15, 2022 Unità:  Entrambi    Inglese   Metrico
Giorno Settimana Mese Anno
  Max: Min: Media:
Temperatura: 41 °F /  5.0 °C 37.4 °F /  3.0 °C 39.2 °F /  4 °C
Dew Point: 39.2 °F /  4.0 °C 35.6 °F /  2.0 °C 37.2 °F /  2.9 °C
Umidità: 96% 88% 92%
Velocità vento: 12.4mph /  20km/h - 5mph /  8.1km/h
Raffica: 16.2mph /  26km/h - -
Direzione- - South
Pressione: 29.8 in /  1009.7 hPa 29.6 in /  1002.6 hPa -
Precipitazioni: 0.76 in /  19.20 mm    
 
 
Tabulato Dati per Dicembre 15, 2022
Ora Temperatura Dew Point Pressione Direzione Velocità vento Raffica Umidità Intensità pioggia (oraria) Info solare Situazione
00:04 39.2 °F /  4.0 °C 35.6 °F /  2.0 °C 29.7in /  1006.2hPa West 5mph /  8km/h 6.2mph /  10km/h 91% 0in /  0.00mm 0.00 W/m2 unknown
00:09 39.2 °F /  4.0 °C 35.6 °F /  2.0 °C 29.7in /  1006.3hPa West 4.3mph /  7km/h 6.2mph /  10km/h 91% 0in /  0.00mm 0.00 W/m2 unknown
00:14 39.2 °F /  4.0 °C 35.6 °F /  2.0 °C 29.7in /  1006.3hPa WSW 3.7mph /  6km/h 5mph /  8km/h 91% 0in /  0.00mm 0.00 W/m2 unknown
00:19 39.2 °F /  4.0 °C 35.6 °F /  2.0 °C 29.7in /  1006.4hPa West 5mph /  8km/h 8.1mph /  13km/h 91% 0in /  0.00mm 0.00 W/m2 unknown
00:24 39.2 °F /  4.0 °C 35.6 °F /  2.0 °C 29.7in /  1006.3hPa West 6.2mph /  10km/h 8.1mph /  13km/h 91% 0in /  0.00mm 0.00 W/m2 unknown
00:29 39.2 °F /  4.0 °C 35.6 °F /  2.0 °C 29.7in /  1006.3hPa West 6.2mph /  10km/h 8.1mph /  13km/h 91% 0in /  0.00mm 0.00 W/m2 unknown
00:34 39.2 °F /  4.0 °C 35.6 °F /  2.0 °C 29.7in /  1006.3hPa West 5mph /  8km/h 8.1mph /  13km/h 91% 0in /  0.00mm 0.00 W/m2 unknown
00:39 39.2 °F /  4.0 °C 35.6 °F /  2.0 °C 29.7in /  1006.5hPa West 5.6mph /  9km/h 9.3mph /  15km/h 91% 0in /  0.00mm 0.00 W/m2 unknown
00:44 39.2 °F /  4.0 °C 35.6 °F /  2.0 °C 29.7in /  1006.5hPa West 6.8mph /  11km/h 9.3mph /  15km/h 91% 0in /  0.00mm 0.00 W/m2 unknown
00:49 39.2 °F /  4.0 °C 35.6 °F /  2.0 °C 29.7in /  1006.4hPa WNW 6.2mph /  10km/h 8.7mph /  14km/h 91% 0in /  0.00mm 0.00 W/m2 unknown
00:54 39.2 °F /  4.0 °C 35.6 °F /  2.0 °C 29.7in /  1006.1hPa WNW 6.8mph /  11km/h 10.6mph /  17km/h 90% 0in /  0.00mm 0.00 W/m2 unknown
00:59 39.2 °F /  4.0 °C 35.6 °F /  2.0 °C 29.7in /  1006.1hPa WNW 5.6mph /  9km/h 9.9mph /  16km/h 90% 0in /  0.00mm 0.00 W/m2 unknown
01:04 39.2 °F /  4.0 °C 35.6 °F /  2.0 °C 29.7in /  1006.1hPa WNW 5.6mph /  9km/h 6.8mph /  11km/h 90% 0in /  0.00mm 0.00 W/m2 unknown
01:09 39.2 °F /  4.0 °C 35.6 °F /  2.0 °C 29.7in /  1006.1hPa West 5.6mph /  9km/h 6.8mph /  11km/h 90% 0in /  0.00mm 0.00 W/m2 unknown
01:14 39.2 °F /  4.0 °C 35.6 °F /  2.0 °C 29.7in /  1006.1hPa West 5mph /  8km/h 6.2mph /  10km/h 90% 0in /  0.00mm 0.00 W/m2 unknown
01:19 39.2 °F /  4.0 °C 35.6 °F /  2.0 °C 29.7in /  1006.0hPa West 3.7mph /  6km/h 6.2mph /  10km/h 89% 0in /  0.00mm 0.00 W/m2 unknown
01:24 39.2 °F /  4.0 °C 35.6 °F /  2.0 °C 29.7in /  1006.0hPa West 3.7mph /  6km/h 6.2mph /  10km/h 89% 0in /  0.00mm 0.00 W/m2 unknown
01:29 39.2 °F /  4.0 °C 35.6 °F /  2.0 °C 29.7in /  1006.0hPa West 3.7mph /  6km/h 5mph /  8km/h 89% 0in /  0.00mm 0.00 W/m2 unknown
01:34 39.2 °F /  4.0 °C 35.6 °F /  2.0 °C 29.7in /  1006.1hPa West 5mph /  8km/h 6.8mph /  11km/h 89% 0in /  0.00mm 0.00 W/m2 unknown
01:39 39.2 °F /  4.0 °C 35.6 °F /  2.0 °C 29.7in /  1006.2hPa West 4.3mph /  7km/h 6.8mph /  11km/h 89% 0in /  0.00mm 0.00 W/m2 unknown
01:44 39.2 °F /  4.0 °C 35.6 °F /  2.0 °C 29.7in /  1006.2hPa West 4.3mph /  7km/h 6.8mph /  11km/h 89% 0in /  0.00mm 0.00 W/m2 unknown
01:49 39.2 °F /  4.0 °C 35.6 °F /  2.0 °C 29.7in /  1006.2hPa West 5mph /  8km/h 6.8mph /  11km/h 89% 0in /  0.00mm 0.00 W/m2 unknown
01:54 39.2 °F /  4.0 °C 35.6 °F /  2.0 °C 29.7in /  1006.2hPa WNW 5.6mph /  9km/h 6.8mph /  11km/h 89% 0in /  0.00mm 0.00 W/m2 unknown
01:59 39.2 °F /  4.0 °C 35.6 °F /  2.0 °C 29.7in /  1006.2hPa WNW 5mph /  8km/h 6.8mph /  11km/h 89% 0in /  0.00mm 0.00 W/m2 unknown
02:04 39.2 °F /  4.0 °C 35.6 °F /  2.0 °C 29.7in /  1006.2hPa WNW 5mph /  8km/h 6.8mph /  11km/h 89% 0in /  0.00mm 0.00 W/m2 unknown
02:09 39.2 °F /  4.0 °C 35.6 °F /  2.0 °C 29.7in /  1006.3hPa WNW 5.6mph /  9km/h 6.8mph /  11km/h 89% 0in /  0.00mm 0.00 W/m2 unknown
02:14 39.2 °F /  4.0 °C 35.6 °F /  2.0 °C 29.7in /  1006.3hPa WNW 5mph /  8km/h 6.2mph /  10km/h 89% 0in /  0.00mm 0.00 W/m2 unknown
02:19 39.2 °F /  4.0 °C 35.6 °F /  2.0 °C 29.7in /  1006.3hPa WNW 3.7mph /  6km/h 6.2mph /  10km/h 89% 0in /  0.00mm 0.00 W/m2 unknown
02:24 39.2 °F /  4.0 °C 35.6 °F /  2.0 °C 29.7in /  1006.2hPa WNW 3.7mph /  6km/h 5mph /  8km/h 89% 0in /  0.00mm 0.00 W/m2 unknown
02:29 39.2 °F /  4.0 °C 35.6 °F /  2.0 °C 29.7in /  1006.3hPa West 4.3mph /  7km/h 6.2mph /  10km/h 89% 0in /  0.00mm 0.00 W/m2 unknown
02:34 39.2 °F /  4.0 °C 35.6 °F /  2.0 °C 29.7in /  1006.3hPa West 3.1mph /  5km/h 6.2mph /  10km/h 89% 0in /  0.00mm 0.00 W/m2 unknown
02:39 39.2 °F /  4.0 °C 35.6 °F /  2.0 °C 29.7in /  1006.3hPa West 2.5mph /  4km/h 3.7mph /  6km/h 89% 0in /  0.00mm 0.00 W/m2 unknown
02:44 39.2 °F /  4.0 °C 35.6 °F /  2.0 °C 29.7in /  1006.4hPa West 2.5mph /  4km/h 3.7mph /  6km/h 89% 0in /  0.00mm 0.00 W/m2 unknown
02:49 39.2 °F /  4.0 °C 35.6 °F /  2.0 °C 29.7in /  1006.4hPa West 2.5mph /  4km/h 3.7mph /  6km/h 89% 0in /  0.00mm 0.00 W/m2 unknown
02:54 39.2 °F /  4.0 °C 35.6 °F /  2.0 °C 29.7in /  1006.4hPa West 1.9mph /  3km/h 3.1mph /  5km/h 89% 0in /  0.00mm 0.00 W/m2 unknown
02:59 39.2 °F /  4.0 °C 35.6 °F /  2.0 °C 29.7in /  1006.5hPa WSW 2.5mph /  4km/h 3.7mph /  6km/h 89% 0in /  0.00mm 0.00 W/m2 unknown
03:04 37.4 °F /  3.0 °C 35.6 °F /  2.0 °C 29.7in /  1006.5hPa WSW 3.1mph /  5km/h 3.7mph /  6km/h 90% 0in /  0.00mm 0.00 W/m2 unknown
03:09 37.4 °F /  3.0 °C 35.6 °F /  2.0 °C 29.7in /  1006.5hPa SW 3.1mph /  5km/h 5mph /  8km/h 90% 0in /  0.00mm 0.00 W/m2 unknown
03:14 37.4 °F /  3.0 °C 35.6 °F /  2.0 °C 29.7in /  1006.6hPa SW 3.7mph /  6km/h 5mph /  8km/h 90% 0in /  0.00mm 0.00 W/m2 unknown
03:19 37.4 °F /  3.0 °C 35.6 °F /  2.0 °C 29.7in /  1006.5hPa WSW 4.3mph /  7km/h 6.2mph /  10km/h 90% 0in /  0.00mm 0.00 W/m2 unknown
03:24 37.4 °F /  3.0 °C 35.6 °F /  2.0 °C 29.7in /  1006.5hPa WSW 4.3mph /  7km/h 6.2mph /  10km/h 90% 0in /  0.00mm 0.00 W/m2 unknown
03:29 37.4 °F /  3.0 °C 35.6 °F /  2.0 °C 29.7in /  1006.4hPa WSW 3.7mph /  6km/h 6.2mph /  10km/h 90% 0in /  0.00mm 0.00 W/m2 unknown
03:34 37.4 °F /  3.0 °C 35.6 °F /  2.0 °C 29.7in /  1006.5hPa WSW 4.3mph /  7km/h 6.2mph /  10km/h 90% 0in /  0.00mm 0.00 W/m2 unknown
03:39 37.4 °F /  3.0 °C 35.6 °F /  2.0 °C 29.7in /  1006.5hPa WSW 4.3mph /  7km/h 6.2mph /  10km/h 90% 0in /  0.00mm 0.00 W/m2 unknown
03:44 37.4 °F /  3.0 °C 35.6 °F /  2.0 °C 29.7in /  1006.6hPa WSW 4.3mph /  7km/h 6.2mph /  10km/h 90% 0in /  0.00mm 0.00 W/m2 unknown
03:49 37.4 °F /  3.0 °C 35.6 °F /  2.0 °C 29.7in /  1006.6hPa WSW 4.3mph /  7km/h 6.2mph /  10km/h 90% 0in /  0.00mm 0.00 W/m2 unknown
03:54 37.4 °F /  3.0 °C 35.6 °F /  2.0 °C 29.7in /  1006.5hPa WSW 3.1mph /  5km/h 6.2mph /  10km/h 90% 0in /  0.00mm 0.00 W/m2 unknown
03:59 37.4 °F /  3.0 °C 35.6 °F /  2.0 °C 29.7in /  1006.4hPa WSW 3.1mph /  5km/h 3.7mph /  6km/h 90% 0in /  0.00mm 0.00 W/m2 unknown
04:04 37.4 °F /  3.0 °C 35.6 °F /  2.0 °C 29.7in /  1006.4hPa WSW 3.7mph /  6km/h 5mph /  8km/h 90% 0in /  0.00mm 0.00 W/m2 unknown
04:09 37.4 °F /  3.0 °C 35.6 °F /  2.0 °C 29.7in /  1006.7hPa WSW 5mph /  8km/h 6.2mph /  10km/h 90% 0in /  0.00mm 0.00 W/m2 unknown
04:14 37.4 °F /  3.0 °C 35.6 °F /  2.0 °C 29.7in /  1006.7hPa WSW 5mph /  8km/h 6.2mph /  10km/h 90% 0in /  0.00mm 0.00 W/m2 unknown
04:19 37.4 °F /  3.0 °C 35.6 °F /  2.0 °C 29.7in /  1006.5hPa West 3.7mph /  6km/h 5mph /  8km/h 90% 0in /  0.00mm 0.00 W/m2 unknown
04:24 37.4 °F /  3.0 °C 35.6 °F /  2.0 °C 29.7in /  1006.5hPa West 3.1mph /  5km/h 5mph /  8km/h 90% 0in /  0.00mm 0.00 W/m2 unknown
04:29 37.4 °F /  3.0 °C 35.6 °F /  2.0 °C 29.7in /  1006.6hPa West 2.5mph /  4km/h 3.7mph /  6km/h 90% 0in /  0.00mm 0.00 W/m2 unknown
04:34 37.4 °F /  3.0 °C 35.6 °F /  2.0 °C 29.7in /  1006.6hPa WNW 2.5mph /  4km/h 3.7mph /  6km/h 90% 0in /  0.00mm 0.00 W/m2 unknown
04:39 37.4 °F /  3.0 °C 35.6 °F /  2.0 °C 29.7in /  1006.6hPa WNW 2.5mph /  4km/h 3.7mph /  6km/h 90% 0in /  0.00mm 0.00 W/m2 unknown
04:44 37.4 °F /  3.0 °C 35.6 °F /  2.0 °C 29.7in /  1006.6hPa WNW 2.5mph /  4km/h 3.7mph /  6km/h 90% 0in /  0.00mm 0.00 W/m2 unknown
04:49 37.4 °F /  3.0 °C 35.6 °F /  2.0 °C 29.7in /  1006.6hPa WNW 2.5mph /  4km/h 3.7mph /  6km/h 90% 0in /  0.00mm 0.00 W/m2 unknown
04:54 37.4 °F /  3.0 °C 35.6 °F /  2.0 °C 29.7in /  1006.8hPa WNW 1.9mph /  3km/h 3.7mph /  6km/h 90% 0in /  0.00mm 0.00 W/m2 unknown
04:59 37.4 °F /  3.0 °C 35.6 °F /  2.0 °C 29.7in /  1006.9hPa West 1.9mph /  3km/h 3.1mph /  5km/h 90% 0in /  0.00mm 0.00 W/m2 unknown
05:04 37.4 °F /  3.0 °C 35.6 °F /  2.0 °C 29.7in /  1007.0hPa WSW 2.5mph /  4km/h 3.7mph /  6km/h 90% 0in /  0.00mm 0.00 W/m2 unknown
05:09 37.4 °F /  3.0 °C 35.6 °F /  2.0 °C 29.7in /  1007.1hPa SW 2.5mph /  4km/h 3.7mph /  6km/h 90% 0in /  0.00mm 0.00 W/m2 unknown
05:14 37.4 °F /  3.0 °C 35.6 °F /  2.0 °C 29.7in /  1007.2hPa SW 2.5mph /  4km/h 3.7mph /  6km/h 90% 0in /  0.00mm 0.00 W/m2 unknown
05:19 37.4 °F /  3.0 °C 35.6 °F /  2.0 °C 29.7in /  1007.2hPa SW 2.5mph /  4km/h 3.7mph /  6km/h 90% 0in /  0.00mm 0.00 W/m2 unknown
05:24 37.4 °F /  3.0 °C 35.6 °F /  2.0 °C 29.7in /  1007.0hPa SW 3.1mph /  5km/h 5mph /  8km/h 90% 0in /  0.00mm 0.00 W/m2 unknown
05:29 37.4 °F /  3.0 °C 35.6 °F /  2.0 °C 29.7in /  1007.0hPa SW 3.1mph /  5km/h 5mph /  8km/h 90% 0in /  0.00mm 0.00 W/m2 unknown
05:34 37.4 °F /  3.0 °C 35.6 °F /  2.0 °C 29.7in /  1007.0hPa SW 3.1mph /  5km/h 5mph /  8km/h 90% 0in /  0.00mm 0.00 W/m2 unknown
05:39 37.4 °F /  3.0 °C 35.6 °F /  2.0 °C 29.7in /  1007.0hPa SW 3.1mph /  5km/h 5mph /  8km/h 90% 0in /  0.00mm 0.00 W/m2 unknown
05:44 37.4 °F /  3.0 °C 35.6 °F /  2.0 °C 29.7in /  1007.2hPa SW 2.5mph /  4km/h 3.7mph /  6km/h 90% 0in /  0.00mm 0.00 W/m2 unknown
05:49 37.4 °F /  3.0 °C 35.6 °F /  2.0 °C 29.7in /  1007.1hPa WSW 2.5mph /  4km/h 3.7mph /  6km/h 90% 0in /  0.00mm 0.00 W/m2 unknown
05:54 37.4 °F /  3.0 °C 35.6 °F /  2.0 °C 29.7in /  1007.1hPa West 3.1mph /  5km/h 3.7mph /  6km/h 90% 0in /  0.00mm 0.00 W/m2 unknown
05:59 37.4 °F /  3.0 °C 35.6 °F /  2.0 °C 29.7in /  1007.1hPa West 3.1mph /  5km/h 3.7mph /  6km/h 90% 0in /  0.00mm 0.00 W/m2 unknown
06:04 37.4 °F /  3.0 °C 35.6 °F /  2.0 °C 29.7in /  1007.1hPa West 2.5mph /  4km/h 3.7mph /  6km/h 90% 0in /  0.00mm 0.00 W/m2 unknown
06:09 37.4 °F /  3.0 °C 35.6 °F /  2.0 °C 29.7in /  1007.0hPa WSW 3.1mph /  5km/h 3.7mph /  6km/h 90% 0in /  0.00mm 0.00 W/m2 unknown
06:14 37.4 °F /  3.0 °C 35.6 °F /  2.0 °C 29.7in /  1007.1hPa SW 2.5mph /  4km/h 3.7mph /  6km/h 91% 0in /  0.00mm 0.00 W/m2 unknown
06:19 37.4 °F /  3.0 °C 35.6 °F /  2.0 °C 29.7in /  1007.2hPa SW 1.9mph /  3km/h 3.7mph /  6km/h 91% 0in /  0.00mm 0.00 W/m2 unknown
06:24 37.4 °F /  3.0 °C 35.6 °F /  2.0 °C 29.8in /  1007.4hPa WSW 2.5mph /  4km/h 3.7mph /  6km/h 91% 0in /  0.00mm 0.00 W/m2 unknown
06:29 37.4 °F /  3.0 °C 35.6 °F /  2.0 °C 29.8in /  1007.4hPa SW 2.5mph /  4km/h 3.7mph /  6km/h 91% 0in /  0.00mm 0.00 W/m2 unknown
06:34 37.4 °F /  3.0 °C 35.6 °F /  2.0 °C 29.8in /  1007.4hPa SW 3.1mph /  5km/h 3.7mph /  6km/h 91% 0in /  0.00mm 0.00 W/m2 unknown
06:39 37.4 °F /  3.0 °C 35.6 °F /  2.0 °C 29.8in /  1007.5hPa SW 3.1mph /  5km/h 3.7mph /  6km/h 91% 0in /  0.00mm 0.00 W/m2 unknown
06:44 37.4 °F /  3.0 °C 35.6 °F /  2.0 °C 29.8in /  1007.5hPa SW 3.1mph /  5km/h 3.7mph /  6km/h 91% 0in /  0.00mm 0.00 W/m2 unknown
06:49 37.4 °F /  3.0 °C 35.6 °F /  2.0 °C 29.8in /  1007.5hPa SW 3.1mph /  5km/h 3.7mph /  6km/h 91% 0in /  0.00mm 0.00 W/m2 unknown
06:54 37.4 °F /  3.0 °C 35.6 °F /  2.0 °C 29.8in /  1007.5hPa SW 3.7mph /  6km/h 5mph /  8km/h 91% 0in /  0.00mm 0.00 W/m2 unknown
06:59 37.4 °F /  3.0 °C 35.6 °F /  2.0 °C 29.8in /  1007.5hPa SW 4.3mph /  7km/h 5mph /  8km/h 91% 0in /  0.00mm 0.00 W/m2 unknown
07:04 37.4 °F /  3.0 °C 35.6 °F /  2.0 °C 29.8in /  1007.7hPa SW 4.3mph /  7km/h 5mph /  8km/h 91% 0in /  0.00mm 0.00 W/m2 unknown
07:09 37.4 °F /  3.0 °C 35.6 °F /  2.0 °C 29.8in /  1007.8hPa SW 2.5mph /  4km/h 5mph /  8km/h 91% 0in /  0.00mm 0.00 W/m2 unknown
07:14 37.4 °F /  3.0 °C 35.6 °F /  2.0 °C 29.8in /  1007.9hPa SW 3.1mph /  5km/h 3.7mph /  6km/h 91% 0in /  0.00mm 0.00 W/m2 unknown
07:19 37.4 °F /  3.0 °C 35.6 °F /  2.0 °C 29.8in /  1008.1hPa SW 4.3mph /  7km/h 6.2mph /  10km/h 91% 0in /  0.00mm 0.00 W/m2 unknown
07:24 37.4 °F /  3.0 °C 35.6 °F /  2.0 °C 29.8in /  1008.1hPa SSW 3.7mph /  6km/h 6.2mph /  10km/h 91% 0in /  0.00mm 0.00 W/m2 unknown
07:29 37.4 °F /  3.0 °C 35.6 °F /  2.0 °C 29.8in /  1008.2hPa SW 3.1mph /  5km/h 3.7mph /  6km/h 91% 0in /  0.00mm 0.00 W/m2 unknown
07:34 39.2 °F /  4.0 °C 35.6 °F /  2.0 °C 29.8in /  1008.2hPa SW 3.1mph /  5km/h 5mph /  8km/h 91% 0in /  0.00mm 0.00 W/m2 unknown
07:39 39.2 °F /  4.0 °C 35.6 °F /  2.0 °C 29.8in /  1008.3hPa WSW 3.1mph /  5km/h 5mph /  8km/h 91% 0in /  0.00mm 0.00 W/m2 unknown
07:44 39.2 °F /  4.0 °C 35.6 °F /  2.0 °C 29.8in /  1008.4hPa West 2.5mph /  4km/h 3.7mph /  6km/h 91% 0in /  0.00mm 0.00 W/m2 unknown
07:49 39.2 °F /  4.0 °C 35.6 °F /  2.0 °C 29.8in /  1008.5hPa NW 2.5mph /  4km/h 3.7mph /  6km/h 91% 0in /  0.00mm 0.00 W/m2 unknown
07:54 39.2 °F /  4.0 °C 35.6 °F /  2.0 °C 29.8in /  1008.6hPa NW 1.2mph /  2km/h 3.1mph /  5km/h 91% 0in /  0.00mm 0.00 W/m2 unknown
07:59 39.2 °F /  4.0 °C 35.6 °F /  2.0 °C 29.8in /  1008.6hPa NW 1.2mph /  2km/h 2.5mph /  4km/h 91% 0in /  0.00mm 0.00 W/m2 unknown
08:04 39.2 °F /  4.0 °C 35.6 °F /  2.0 °C 29.8in /  1008.6hPa North 1.2mph /  2km/h 2.5mph /  4km/h 91% 0in /  0.00mm 0.00 W/m2 unknown
08:09 39.2 °F /  4.0 °C 35.6 °F /  2.0 °C 29.8in /  1008.5hPa North 1.9mph /  3km/h 2.5mph /  4km/h 91% 0in /  0.00mm 5.00 W/m2 unknown
08:14 39.2 °F /  4.0 °C 35.6 °F /  2.0 °C 29.8in /  1008.6hPa North 1.2mph /  2km/h 2.5mph /  4km/h 91% 0in /  0.00mm 7.00 W/m2 unknown
08:19 39.2 °F /  4.0 °C 35.6 °F /  2.0 °C 29.8in /  1008.8hPa NE 1.9mph /  3km/h 3.7mph /  6km/h 91% 0in /  0.00mm 11.00 W/m2 unknown
08:24 39.2 °F /  4.0 °C 35.6 °F /  2.0 °C 29.8in /  1008.8hPa ESE 1.9mph /  3km/h 3.7mph /  6km/h 91% 0in /  0.00mm 16.00 W/m2 unknown
08:29 39.2 °F /  4.0 °C 35.6 °F /  2.0 °C 29.8in /  1008.8hPa East 1.2mph /  2km/h 3.1mph /  5km/h 91% 0in /  0.00mm 16.00 W/m2 unknown
08:34 39.2 °F /  4.0 °C 35.6 °F /  2.0 °C 29.8in /  1008.9hPa East 1.9mph /  3km/h 3.7mph /  6km/h 91% 0in /  0.00mm 21.00 W/m2 unknown
08:39 39.2 °F /  4.0 °C 35.6 °F /  2.0 °C 29.8in /  1009.0hPa East 1.9mph /  3km/h 3.7mph /  6km/h 91% 0in /  0.00mm 26.00 W/m2 unknown
08:44 39.2 °F /  4.0 °C 35.6 °F /  2.0 °C 29.8in /  1009.1hPa ENE 2.5mph /  4km/h 3.7mph /  6km/h 91% 0in /  0.00mm 23.00 W/m2 unknown
08:49 39.2 °F /  4.0 °C 37.4 °F /  3.0 °C 29.8in /  1009.3hPa ENE 2.5mph /  4km/h 3.7mph /  6km/h 91% 0in /  0.00mm 21.00 W/m2 unknown
08:54 39.2 °F /  4.0 °C 37.4 °F /  3.0 °C 29.8in /  1009.4hPa ENE 1.9mph /  3km/h 3.1mph /  5km/h 91% 0in /  0.00mm 19.00 W/m2 unknown
08:59 39.2 °F /  4.0 °C 37.4 °F /  3.0 °C 29.8in /  1009.5hPa ENE 2.5mph /  4km/h 3.7mph /  6km/h 91% 0in /  0.00mm 35.00 W/m2 unknown
09:04 39.2 °F /  4.0 °C 37.4 °F /  3.0 °C 29.8in /  1009.7hPa ENE 2.5mph /  4km/h 3.7mph /  6km/h 91% 0in /  0.00mm 35.00 W/m2 unknown
09:09 39.2 °F /  4.0 °C 37.4 °F /  3.0 °C 29.8in /  1009.7hPa NE 3.1mph /  5km/h 3.7mph /  6km/h 91% 0in /  0.00mm 30.00 W/m2 unknown
09:14 39.2 °F /  4.0 °C 37.4 °F /  3.0 °C 29.8in /  1009.5hPa NNE 3.1mph /  5km/h 3.7mph /  6km/h 91% 0in /  0.00mm 32.00 W/m2 unknown
09:19 39.2 °F /  4.0 °C 37.4 °F /  3.0 °C 29.8in /  1009.3hPa North 4.3mph /  7km/h 5mph /  8km/h 91% 0in /  0.00mm 35.00 W/m2 unknown
09:24 39.2 °F /  4.0 °C 37.4 °F /  3.0 °C 29.8in /  1009.2hPa NNE 5mph /  8km/h 6.2mph /  10km/h 91% 0in /  0.00mm 39.00 W/m2 unknown
09:29 39.2 °F /  4.0 °C 37.4 °F /  3.0 °C 29.8in /  1009.4hPa NNE 4.3mph /  7km/h 6.2mph /  10km/h 91% 0in /  0.00mm 32.00 W/m2 unknown
09:34 39.2 °F /  4.0 °C 37.4 °F /  3.0 °C 29.8in /  1009.4hPa NE 4.3mph /  7km/h 6.2mph /  10km/h 91% 0in /  0.00mm 35.00 W/m2 unknown
09:39 39.2 °F /  4.0 °C 37.4 °F /  3.0 °C 29.8in /  1009.6hPa ENE 3.1mph /  5km/h 5mph /  8km/h 91% 0in /  0.00mm 32.00 W/m2 unknown
09:44 39.2 °F /  4.0 °C 37.4 °F /  3.0 °C 29.8in /  1009.7hPa ENE 3.7mph /  6km/h 5mph /  8km/h 91% 0in /  0.00mm 25.00 W/m2 unknown
09:49 39.2 °F /  4.0 °C 37.4 °F /  3.0 °C 29.8in /  1009.7hPa ENE 3.1mph /  5km/h 5mph /  8km/h 91% 0in /  0.00mm 26.00 W/m2 unknown
09:54 39.2 °F /  4.0 °C 37.4 °F /  3.0 °C 29.8in /  1009.6hPa ENE 4.3mph /  7km/h 6.8mph /  11km/h 91% 0in /  0.00mm 37.00 W/m2 unknown
09:59 39.2 °F /  4.0 °C 37.4 °F /  3.0 °C 29.8in /  1009.6hPa ENE 4.3mph /  7km/h 6.8mph /  11km/h 91% 0in /  0.00mm 39.00 W/m2 unknown
10:04 39.2 °F /  4.0 °C 37.4 °F /  3.0 °C 29.8in /  1009.7hPa ENE 5mph /  8km/h 8.1mph /  13km/h 91% 0in /  0.00mm 51.00 W/m2 unknown
10:09 39.2 °F /  4.0 °C 37.4 °F /  3.0 °C 29.8in /  1009.7hPa East 5mph /  8km/h 8.1mph /  13km/h 90% 0in /  0.00mm 63.00 W/m2 unknown
10:14 39.2 °F /  4.0 °C 37.4 °F /  3.0 °C 29.8in /  1009.7hPa East 5.6mph /  9km/h 8.1mph /  13km/h 90% 0in /  0.00mm 69.00 W/m2 unknown
10:19 39.2 °F /  4.0 °C 37.4 °F /  3.0 °C 29.8in /  1009.5hPa East 6.8mph /  11km/h 8.1mph /  13km/h 91% 0in /  0.00mm 91.00 W/m2 unknown
10:24 39.2 °F /  4.0 °C 37.4 °F /  3.0 °C 29.8in /  1009.5hPa East 7.5mph /  12km/h 9.3mph /  15km/h 91% 0in /  0.00mm 109.00 W/m2 unknown
10:29 41 °F /  5.0 °C 37.4 °F /  3.0 °C 29.8in /  1009.7hPa East 6.8mph /  11km/h 9.3mph /  15km/h 91% 0in /  0.00mm 98.00 W/m2 unknown
10:34 41 °F /  5.0 °C 37.4 °F /  3.0 °C 29.8in /  1009.7hPa ESE 7.5mph /  12km/h 9.3mph /  15km/h 90% 0in /  0.00mm 79.00 W/m2 unknown
10:39 41 °F /  5.0 °C 37.4 °F /  3.0 °C 29.8in /  1009.7hPa East 6.8mph /  11km/h 9.3mph /  15km/h 90% 0in /  0.00mm 84.00 W/m2 unknown
10:44 41 °F /  5.0 °C 37.4 °F /  3.0 °C 29.8in /  1009.5hPa East 6.8mph /  11km/h 8.7mph /  14km/h 90% 0in /  0.00mm 109.00 W/m2 unknown
10:49 41 °F /  5.0 °C 37.4 °F /  3.0 °C 29.8in /  1009.3hPa East 7.5mph /  12km/h 9.3mph /  15km/h 90% 0in /  0.00mm 114.00 W/m2 unknown
10:54 41 °F /  5.0 °C 37.4 °F /  3.0 °C 29.8in /  1009.4hPa ESE 8.1mph /  13km/h 10.6mph /  17km/h 89% 0in /  0.00mm 81.00 W/m2 unknown
10:59 41 °F /  5.0 °C 37.4 °F /  3.0 °C 29.8in /  1009.4hPa East 6.8mph /  11km/h 10.6mph /  17km/h 89% 0in /  0.00mm 65.00 W/m2 unknown
11:04 41 °F /  5.0 °C 37.4 °F /  3.0 °C 29.8in /  1009.4hPa ESE 7.5mph /  12km/h 10.6mph /  17km/h 89% 0in /  0.00mm 65.00 W/m2 unknown
11:09 41 °F /  5.0 °C 37.4 °F /  3.0 °C 29.8in /  1009.4hPa ESE 6.8mph /  11km/h 10.6mph /  17km/h 89% 0in /  0.00mm 56.00 W/m2 unknown
11:14 41 °F /  5.0 °C 37.4 °F /  3.0 °C 29.8in /  1009.5hPa East 4.3mph /  7km/h 8.1mph /  13km/h 89% 0in /  0.00mm 58.00 W/m2 unknown
11:19 41 °F /  5.0 °C 37.4 °F /  3.0 °C 29.8in /  1009.5hPa East 5mph /  8km/h 6.2mph /  10km/h 89% 0in /  0.00mm 69.00 W/m2 unknown
11:24 41 °F /  5.0 °C 37.4 °F /  3.0 °C 29.8in /  1009.6hPa ESE 2.5mph /  4km/h 6.2mph /  10km/h 89% 0in /  0.00mm 69.00 W/m2 unknown
11:29 41 °F /  5.0 °C 37.4 °F /  3.0 °C 29.8in /  1009.6hPa East 3.7mph /  6km/h 6.2mph /  10km/h 89% 0in /  0.00mm 79.00 W/m2 unknown
11:34 41 °F /  5.0 °C 37.4 °F /  3.0 °C 29.8in /  1009.5hPa East 4.3mph /  7km/h 6.2mph /  10km/h 88% 0in /  0.00mm 79.00 W/m2 unknown
11:39 41 °F /  5.0 °C 37.4 °F /  3.0 °C 29.8in /  1009.6hPa ESE 5mph /  8km/h 6.2mph /  10km/h 88% 0in /  0.00mm 67.00 W/m2 unknown
11:44 41 °F /  5.0 °C 37.4 °F /  3.0 °C 29.8in /  1009.5hPa ESE 2.5mph /  4km/h 6.2mph /  10km/h 88% 0in /  0.00mm 69.00 W/m2 unknown
11:49 41 °F /  5.0 °C 37.4 °F /  3.0 °C 29.8in /  1009.4hPa ESE 4.3mph /  7km/h 5mph /  8km/h 88% 0in /  0.00mm 81.00 W/m2 unknown
11:54 41 °F /  5.0 °C 37.4 °F /  3.0 °C 29.8in /  1009.4hPa ESE 4.3mph /  7km/h 6.2mph /  10km/h 88% 0in /  0.00mm 88.00 W/m2 unknown
11:59 41 °F /  5.0 °C 37.4 °F /  3.0 °C 29.8in /  1009.3hPa East 5mph /  8km/h 6.8mph /  11km/h 88% 0in /  0.00mm 79.00 W/m2 unknown
12:04 41 °F /  5.0 °C 37.4 °F /  3.0 °C 29.8in /  1009.1hPa East 6.2mph /  10km/h 8.1mph /  13km/h 88% 0in /  0.00mm 72.00 W/m2 unknown
12:09 41 °F /  5.0 °C 37.4 °F /  3.0 °C 29.8in /  1009.1hPa East 6.2mph /  10km/h 8.1mph /  13km/h 88% 0in /  0.00mm 67.00 W/m2 unknown
12:14 41 °F /  5.0 °C 37.4 °F /  3.0 °C 29.8in /  1009.1hPa East 5.6mph /  9km/h 6.8mph /  11km/h 88% 0in /  0.00mm 49.00 W/m2 unknown
12:19 41 °F /  5.0 °C 37.4 °F /  3.0 °C 29.8in /  1009.1hPa ENE 6.8mph /  11km/h 8.7mph /  14km/h 88% 0in /  0.00mm 40.00 W/m2 unknown
12:24 41 °F /  5.0 °C 37.4 °F /  3.0 °C 29.8in /  1008.9hPa East 6.8mph /  11km/h 9.3mph /  15km/h 88% 0in /  0.00mm 40.00 W/m2 unknown
12:29 41 °F /  5.0 °C 37.4 °F /  3.0 °C 29.8in /  1008.7hPa East 8.1mph /  13km/h 9.9mph /  16km/h 88% 0in /  0.00mm 40.00 W/m2 unknown
12:34 41 °F /  5.0 °C 39.2 °F /  4.0 °C 29.8in /  1008.6hPa East 8.1mph /  13km/h 10.6mph /  17km/h 89% 0in /  0.00mm 49.00 W/m2 unknown
12:39 41 °F /  5.0 °C 39.2 °F /  4.0 °C 29.8in /  1008.5hPa East 7.5mph /  12km/h 10.6mph /  17km/h 89% 0in /  0.00mm 49.00 W/m2 unknown
12:44 41 °F /  5.0 °C 39.2 °F /  4.0 °C 29.8in /  1008.4hPa East 6.8mph /  11km/h 8.7mph /  14km/h 89% 0in /  0.00mm 39.00 W/m2 unknown
12:49 41 °F /  5.0 °C 39.2 °F /  4.0 °C 29.8in /  1008.4hPa ENE 7.5mph /  12km/h 10.6mph /  17km/h 89% 0in /  0.00mm 26.00 W/m2 unknown
12:54 41 °F /  5.0 °C 39.2 °F /  4.0 °C 29.8in /  1008.2hPa ENE 5.6mph /  9km/h 9.9mph /  16km/h 89% 0in /  0.00mm 30.00 W/m2 unknown
12:59 41 °F /  5.0 °C 39.2 °F /  4.0 °C 29.8in /  1008.2hPa ENE 5.6mph /  9km/h 9.9mph /  16km/h 90% 0in /  0.00mm 30.00 W/m2 unknown
13:04 41 °F /  5.0 °C 39.2 °F /  4.0 °C 29.8in /  1008.1hPa ENE 9.3mph /  15km/h 13mph /  21km/h 90% 0in /  0.00mm 28.00 W/m2 unknown
13:09 41 °F /  5.0 °C 39.2 °F /  4.0 °C 29.8in /  1008.1hPa ENE 8.7mph /  14km/h 13mph /  21km/h 90% 0in /  0.00mm 28.00 W/m2 unknown
13:14 41 °F /  5.0 °C 39.2 °F /  4.0 °C 29.8in /  1008.0hPa ENE 8.7mph /  14km/h 11.8mph /  19km/h 90% 0in /  0.00mm 30.00 W/m2 unknown
13:19 41 °F /  5.0 °C 39.2 °F /  4.0 °C 29.8in /  1008.0hPa East 9.3mph /  15km/h 14.3mph /  23km/h 90% 0in /  0.00mm 30.00 W/m2 unknown
13:24 41 °F /  5.0 °C 39.2 °F /  4.0 °C 29.8in /  1008.0hPa East 8.7mph /  14km/h 14.3mph /  23km/h 89% 0in /  0.00mm 26.00 W/m2 unknown
13:29 41 °F /  5.0 °C 39.2 °F /  4.0 °C 29.8in /  1007.8hPa East 9.9mph /  16km/h 13mph /  21km/h 89% 0in /  0.00mm 28.00 W/m2 unknown
13:34 41 °F /  5.0 °C 39.2 °F /  4.0 °C 29.8in /  1007.7hPa East 9.9mph /  16km/h 16.2mph /  26km/h 89% 0in /  0.00mm 28.00 W/m2 unknown
13:39 41 °F /  5.0 °C 37.4 °F /  3.0 °C 29.8in /  1007.6hPa ENE 10.6mph /  17km/h 16.2mph /  26km/h 88% 0in /  0.00mm 33.00 W/m2 unknown
13:44 41 °F /  5.0 °C 37.4 °F /  3.0 °C 29.8in /  1007.4hPa ENE 10.6mph /  17km/h 16.2mph /  26km/h 88% 0in /  0.00mm 39.00 W/m2 unknown
13:49 41 °F /  5.0 °C 37.4 °F /  3.0 °C 29.8in /  1007.5hPa ENE 7.5mph /  12km/h 14.9mph /  24km/h 88% 0in /  0.00mm 39.00 W/m2 unknown
13:54 41 °F /  5.0 °C 37.4 °F /  3.0 °C 29.8in /  1007.5hPa ENE 6.8mph /  11km/h 9.9mph /  16km/h 88% 0in /  0.00mm 25.00 W/m2 unknown
13:59 41 °F /  5.0 °C 37.4 °F /  3.0 °C 29.8in /  1007.5hPa ENE 6.2mph /  10km/h 9.3mph /  15km/h 88% 0in /  0.00mm 19.00 W/m2 unknown
14:04 41 °F /  5.0 °C 37.4 °F /  3.0 °C 29.8in /  1007.4hPa East 9.9mph /  16km/h 13mph /  21km/h 89% 0in /  0.00mm 19.00 W/m2 unknown
14:09 41 °F /  5.0 °C 37.4 °F /  3.0 °C 29.8in /  1007.4hPa East 8.1mph /  13km/h 13mph /  21km/h 89% 0in /  0.00mm 12.00 W/m2 unknown
14:14 41 °F /  5.0 °C 37.4 °F /  3.0 °C 29.8in /  1007.4hPa East 7.5mph /  12km/h 11.8mph /  19km/h 89% 0in /  0.00mm 11.00 W/m2 unknown
14:19 41 °F /  5.0 °C 37.4 °F /  3.0 °C 29.8in /  1007.5hPa East 6.8mph /  11km/h 10.6mph /  17km/h 90% 0.01in /  0.20mm 11.00 W/m2 unknown
14:24 41 °F /  5.0 °C 37.4 °F /  3.0 °C 29.8in /  1007.6hPa ESE 6.2mph /  10km/h 9.9mph /  16km/h 90% 0.02in /  0.41mm 9.00 W/m2 unknown
14:29 41 °F /  5.0 °C 37.4 °F /  3.0 °C 29.8in /  1007.6hPa ESE 6.2mph /  10km/h 9.9mph /  16km/h 90% 0.02in /  0.41mm 11.00 W/m2 unknown
14:34 41 °F /  5.0 °C 37.4 °F /  3.0 °C 29.8in /  1007.7hPa ESE 6.8mph /  11km/h 10.6mph /  17km/h 91% 0.02in /  0.61mm 9.00 W/m2 unknown
14:39 41 °F /  5.0 °C 37.4 °F /  3.0 °C 29.8in /  1007.7hPa East 6.2mph /  10km/h 8.1mph /  13km/h 91% 0.03in /  0.79mm 9.00 W/m2 unknown
14:44 41 °F /  5.0 °C 37.4 °F /  3.0 °C 29.8in /  1007.7hPa East 6.8mph /  11km/h 8.1mph /  13km/h 91% 0.04in /  0.99mm 7.00 W/m2 unknown
14:49 41 °F /  5.0 °C 37.4 °F /  3.0 °C 29.8in /  1007.8hPa ESE 6.2mph /  10km/h 8.1mph /  13km/h 91% 0.05in /  1.19mm 7.00 W/m2 unknown
14:54 39.2 °F /  4.0 °C 37.4 °F /  3.0 °C 29.8in /  1007.8hPa East 6.2mph /  10km/h 8.1mph /  13km/h 92% 0.06in /  1.60mm 9.00 W/m2 unknown
14:59 39.2 °F /  4.0 °C 37.4 °F /  3.0 °C 29.8in /  1007.6hPa ENE 6.8mph /  11km/h 8.1mph /  13km/h 92% 0.07in /  1.80mm 9.00 W/m2 unknown
15:04 39.2 °F /  4.0 °C 37.4 °F /  3.0 °C 29.8in /  1007.6hPa East 5mph /  8km/h 8.1mph /  13km/h 92% 0.09in /  2.21mm 7.00 W/m2 unknown
15:09 39.2 °F /  4.0 °C 37.4 °F /  3.0 °C 29.8in /  1007.6hPa East 4.3mph /  7km/h 6.8mph /  11km/h 92% 0.09in /  2.39mm 5.00 W/m2 unknown
15:14 39.2 °F /  4.0 °C 37.4 °F /  3.0 °C 29.8in /  1007.5hPa East 5mph /  8km/h 6.8mph /  11km/h 92% 0.11in /  2.79mm 5.00 W/m2 unknown
15:19 39.2 °F /  4.0 °C 37.4 °F /  3.0 °C 29.7in /  1007.3hPa East 6.8mph /  11km/h 11.8mph /  19km/h 93% 0.13in /  3.20mm 7.00 W/m2 unknown
15:24 39.2 °F /  4.0 °C 37.4 °F /  3.0 °C 29.7in /  1007.2hPa East 7.5mph /  12km/h 11.8mph /  19km/h 93% 0.13in /  3.20mm 7.00 W/m2 unknown
15:29 39.2 °F /  4.0 °C 37.4 °F /  3.0 °C 29.7in /  1007.0hPa ENE 8.7mph /  14km/h 11.8mph /  19km/h 93% 0.13in /  3.20mm 7.00 W/m2 unknown
15:34 39.2 °F /  4.0 °C 37.4 °F /  3.0 °C 29.7in /  1006.9hPa ENE 9.3mph /  15km/h 11.8mph /  19km/h 93% 0.13in /  3.40mm 0.00 W/m2 unknown
15:39 39.2 °F /  4.0 °C 37.4 °F /  3.0 °C 29.7in /  1006.8hPa ENE 8.7mph /  14km/h 13mph /  21km/h 94% 0.13in /  3.40mm 0.00 W/m2 unknown
15:44 39.2 °F /  4.0 °C 37.4 °F /  3.0 °C 29.7in /  1006.8hPa ENE 8.7mph /  14km/h 14.3mph /  23km/h 94% 0.13in /  3.40mm 5.00 W/m2 unknown
15:49 39.2 °F /  4.0 °C 37.4 °F /  3.0 °C 29.7in /  1006.7hPa ENE 9.3mph /  15km/h 13.7mph /  22km/h 94% 0.13in /  3.40mm 5.00 W/m2 unknown
15:54 39.2 °F /  4.0 °C 37.4 °F /  3.0 °C 29.7in /  1006.6hPa East 9.3mph /  15km/h 14.3mph /  23km/h 94% 0.13in /  3.40mm 0.00 W/m2 unknown
15:59 39.2 °F /  4.0 °C 37.4 °F /  3.0 °C 29.7in /  1006.6hPa East 8.7mph /  14km/h 14.3mph /  23km/h 94% 0.13in /  3.40mm 0.00 W/m2 unknown
16:04 39.2 °F /  4.0 °C 37.4 °F /  3.0 °C 29.7in /  1006.5hPa ENE 12.4mph /  20km/h 14.9mph /  24km/h 94% 0.14in /  3.61mm 0.00 W/m2 unknown
16:09 39.2 °F /  4.0 °C 37.4 °F /  3.0 °C 29.7in /  1006.4hPa ENE 10.6mph /  17km/h 14.9mph /  24km/h 94% 0.14in /  3.61mm 0.00 W/m2 unknown
16:14 39.2 °F /  4.0 °C 37.4 °F /  3.0 °C 29.7in /  1006.3hPa ENE 9.9mph /  16km/h 14.9mph /  24km/h 94% 0.13in /  3.40mm 0.00 W/m2 unknown
16:19 39.2 °F /  4.0 °C 37.4 °F /  3.0 °C 29.7in /  1006.1hPa ENE 8.1mph /  13km/h 14.3mph /  23km/h 94% 0.13in /  3.40mm 0.00 W/m2 unknown
16:24 39.2 °F /  4.0 °C 37.4 °F /  3.0 °C 29.7in /  1006.1hPa ENE 9.9mph /  16km/h 14.3mph /  23km/h 94% 0.13in /  3.20mm 0.00 W/m2 unknown
16:29 39.2 °F /  4.0 °C 37.4 °F /  3.0 °C 29.7in /  1006.2hPa ENE 8.1mph /  13km/h 14.3mph /  23km/h 95% 0.12in /  3.00mm 0.00 W/m2 unknown
16:34 39.2 °F /  4.0 °C 37.4 °F /  3.0 °C 29.7in /  1006.1hPa ENE 6.2mph /  10km/h 8.7mph /  14km/h 95% 0.12in /  3.00mm 0.00 W/m2 unknown
16:39 39.2 °F /  4.0 °C 37.4 °F /  3.0 °C 29.7in /  1006.1hPa ENE 6.2mph /  10km/h 9.3mph /  15km/h 95% 0.11in /  2.79mm 0.00 W/m2 unknown
16:44 39.2 °F /  4.0 °C 37.4 °F /  3.0 °C 29.7in /  1005.9hPa ENE 6.8mph /  11km/h 9.3mph /  15km/h 95% 0.11in /  2.79mm 0.00 W/m2 unknown
16:49 39.2 °F /  4.0 °C 37.4 °F /  3.0 °C 29.7in /  1005.8hPa ENE 6.8mph /  11km/h 10.6mph /  17km/h 95% 0.11in /  2.79mm 0.00 W/m2 unknown
16:54 39.2 °F /  4.0 °C 37.4 °F /  3.0 °C 29.7in /  1005.7hPa ENE 6.8mph /  11km/h 10.6mph /  17km/h 95% 0.11in /  2.79mm 0.00 W/m2 unknown
16:59 39.2 °F /  4.0 °C 37.4 °F /  3.0 °C 29.7in /  1005.5hPa ENE 5mph /  8km/h 9.9mph /  16km/h 95% 0.11in /  2.79mm 0.00 W/m2 unknown
17:04 39.2 °F /  4.0 °C 37.4 °F /  3.0 °C 29.7in /  1005.5hPa ENE 5mph /  8km/h 8.1mph /  13km/h 95% 0.11in /  2.79mm 0.00 W/m2 unknown
17:09 39.2 °F /  4.0 °C 37.4 °F /  3.0 °C 29.7in /  1005.5hPa NE 3.1mph /  5km/h 8.1mph /  13km/h 95% 0.1in /  2.59mm 0.00 W/m2 unknown
17:14 39.2 °F /  4.0 °C 37.4 °F /  3.0 °C 29.7in /  1005.3hPa NE 1.9mph /  3km/h 3.7mph /  6km/h 95% 0.1in /  2.59mm 0.00 W/m2 unknown
17:19 39.2 °F /  4.0 °C 37.4 °F /  3.0 °C 29.7in /  1005.3hPa NNE 1.2mph /  2km/h 3.1mph /  5km/h 95% 0.1in /  2.59mm 0.00 W/m2 unknown
17:24 39.2 °F /  4.0 °C 37.4 °F /  3.0 °C 29.7in /  1005.3hPa NNE 1.2mph /  2km/h 2.5mph /  4km/h 95% 0.1in /  2.59mm 0.00 W/m2 unknown
17:29 39.2 °F /  4.0 °C 37.4 °F /  3.0 °C 29.7in /  1005.0hPa NNE 1.2mph /  2km/h 2.5mph /  4km/h 95% 0.09in /  2.39mm 0.00 W/m2 unknown
17:34 39.2 °F /  4.0 °C 37.4 °F /  3.0 °C 29.7in /  1004.9hPa NE 2.5mph /  4km/h 3.7mph /  6km/h 95% 0.1in /  2.59mm 0.00 W/m2 unknown
17:39 39.2 °F /  4.0 °C 37.4 °F /  3.0 °C 29.7in /  1004.7hPa NE 1.9mph /  3km/h 3.7mph /  6km/h 95% 0.1in /  2.59mm 0.00 W/m2 unknown
17:44 39.2 °F /  4.0 °C 37.4 °F /  3.0 °C 29.7in /  1004.7hPa NE 1.2mph /  2km/h 3.1mph /  5km/h 95% 0.11in /  2.79mm 0.00 W/m2 unknown
17:49 39.2 °F /  4.0 °C 37.4 °F /  3.0 °C 29.7in /  1004.6hPa NE 1.2mph /  2km/h 2.5mph /  4km/h 95% 0.1in /  2.59mm 0.00 W/m2 unknown
17:54 39.2 °F /  4.0 °C 37.4 °F /  3.0 °C 29.7in /  1004.6hPa NE 1.9mph /  3km/h 2.5mph /  4km/h 95% 0.1in /  2.59mm 0.00 W/m2 unknown
17:59 39.2 °F /  4.0 °C 37.4 °F /  3.0 °C 29.7in /  1004.6hPa NNW 1.9mph /  3km/h 2.5mph /  4km/h 95% 0.1in /  2.59mm 0.00 W/m2 unknown
18:04 39.2 °F /  4.0 °C 37.4 °F /  3.0 °C 29.7in /  1004.5hPa WNW 1.2mph /  2km/h 2.5mph /  4km/h 95% 0.1in /  2.59mm 0.00 W/m2 unknown
18:09 39.2 °F /  4.0 °C 37.4 °F /  3.0 °C 29.7in /  1004.6hPa WSW 3.1mph /  5km/h 3.7mph /  6km/h 95% 0.1in /  2.59mm 0.00 W/m2 unknown
18:14 39.2 °F /  4.0 °C 37.4 °F /  3.0 °C 29.7in /  1004.8hPa SW 5mph /  8km/h 6.8mph /  11km/h 95% 0.1in /  2.59mm 0.00 W/m2 unknown
18:19 39.2 °F /  4.0 °C 37.4 °F /  3.0 °C 29.7in /  1004.8hPa SW 3.7mph /  6km/h 6.8mph /  11km/h 95% 0.1in /  2.59mm 0.00 W/m2 unknown
18:24 39.2 °F /  4.0 °C 37.4 °F /  3.0 °C 29.7in /  1004.6hPa SSW 3.1mph /  5km/h 6.8mph /  11km/h 95% 0.1in /  2.59mm 0.00 W/m2 unknown
18:29 39.2 °F /  4.0 °C 37.4 °F /  3.0 °C 29.7in /  1004.5hPa SW 2.5mph /  4km/h 3.7mph /  6km/h 95% 0.1in /  2.59mm 0.00 W/m2 unknown
18:34 39.2 °F /  4.0 °C 37.4 °F /  3.0 °C 29.7in /  1004.5hPa WSW 2.5mph /  4km/h 3.7mph /  6km/h 95% 0.1in /  2.59mm 0.00 W/m2 unknown
18:39 39.2 °F /  4.0 °C 37.4 °F /  3.0 °C 29.7in /  1004.6hPa WSW 3.1mph /  5km/h 3.7mph /  6km/h 95% 0.09in /  2.21mm 0.00 W/m2 unknown
18:44 39.2 °F /  4.0 °C 37.4 °F /  3.0 °C 29.7in /  1004.6hPa SW 3.1mph /  5km/h 5mph /  8km/h 95% 0.09in /  2.21mm 0.00 W/m2 unknown
18:49 39.2 °F /  4.0 °C 37.4 °F /  3.0 °C 29.7in /  1004.6hPa WSW 3.1mph /  5km/h 3.7mph /  6km/h 95% 0.09in /  2.21mm 0.00 W/m2 unknown
18:54 39.2 °F /  4.0 °C 37.4 °F /  3.0 °C 29.7in /  1004.4hPa WSW 0.6mph /  1km/h 2.5mph /  4km/h 95% 0.09in /  2.21mm 0.00 W/m2 unknown
18:59 39.2 °F /  4.0 °C 37.4 °F /  3.0 °C 29.7in /  1004.4hPa West 1.9mph /  3km/h 2.5mph /  4km/h 95% 0.09in /  2.21mm 0.00 W/m2 unknown
19:04 39.2 °F /  4.0 °C 37.4 °F /  3.0 °C 29.7in /  1004.3hPa WNW 2.5mph /  4km/h 3.7mph /  6km/h 95% 0.09in /  2.39mm 0.00 W/m2 unknown
19:09 39.2 °F /  4.0 °C 39.2 °F /  4.0 °C 29.7in /  1004.2hPa WNW 1.9mph /  3km/h 3.1mph /  5km/h 95% 0.09in /  2.21mm 0.00 W/m2 unknown
19:14 39.2 °F /  4.0 °C 37.4 °F /  3.0 °C 29.7in /  1004.0hPa NNW 1.9mph /  3km/h 2.5mph /  4km/h 95% 0.08in /  2.01mm 0.00 W/m2 unknown
19:19 39.2 °F /  4.0 °C 37.4 °F /  3.0 °C 29.7in /  1004.0hPa WNW 2.5mph /  4km/h 3.7mph /  6km/h 95% 0.08in /  2.01mm 0.00 W/m2 unknown
19:24 39.2 °F /  4.0 °C 39.2 °F /  4.0 °C 29.6in /  1003.9hPa WNW 3.1mph /  5km/h 3.7mph /  6km/h 95% 0.08in /  2.01mm 0.00 W/m2 unknown
19:29 39.2 °F /  4.0 °C 37.4 °F /  3.0 °C 29.6in /  1003.8hPa WNW 3.7mph /  6km/h 5mph /  8km/h 95% 0.08in /  2.01mm 0.00 W/m2 unknown
19:34 39.2 °F /  4.0 °C 37.4 °F /  3.0 °C 29.6in /  1003.9hPa West 3.7mph /  6km/h 5mph /  8km/h 95% 0.07in /  1.80mm 0.00 W/m2 unknown
19:39 39.2 °F /  4.0 °C 37.4 °F /  3.0 °C 29.6in /  1003.8hPa West 3.1mph /  5km/h 3.7mph /  6km/h 95% 0.07in /  1.80mm 0.00 W/m2 unknown
19:44 39.2 °F /  4.0 °C 37.4 °F /  3.0 °C 29.6in /  1003.8hPa West 3.1mph /  5km/h 3.7mph /  6km/h 95% 0.07in /  1.80mm 0.00 W/m2 unknown
19:49 39.2 °F /  4.0 °C 37.4 °F /  3.0 °C 29.6in /  1003.6hPa WNW 3.1mph /  5km/h 3.7mph /  6km/h 95% 0.07in /  1.80mm 0.00 W/m2 unknown
19:54 39.2 °F /  4.0 °C 37.4 °F /  3.0 °C 29.6in /  1003.6hPa WNW 3.1mph /  5km/h 3.7mph /  6km/h 95% 0.07in /  1.80mm 0.00 W/m2 unknown
19:59 39.2 °F /  4.0 °C 39.2 °F /  4.0 °C 29.6in /  1003.5hPa NW 2.5mph /  4km/h 3.7mph /  6km/h 96% 0.07in /  1.80mm 0.00 W/m2 unknown
20:04 39.2 °F /  4.0 °C 39.2 °F /  4.0 °C 29.6in /  1003.5hPa WNW 4.3mph /  7km/h 5mph /  8km/h 96% 0.07in /  1.80mm 0.00 W/m2 unknown
20:09 39.2 °F /  4.0 °C 39.2 °F /  4.0 °C 29.6in /  1003.5hPa WNW 4.3mph /  7km/h 5mph /  8km/h 96% 0.07in /  1.80mm 0.00 W/m2 unknown
20:14 39.2 °F /  4.0 °C 39.2 °F /  4.0 °C 29.6in /  1003.6hPa West 3.7mph /  6km/h 5mph /  8km/h 96% 0.07in /  1.80mm 0.00 W/m2 unknown
20:19 39.2 °F /  4.0 °C 39.2 °F /  4.0 °C 29.6in /  1003.8hPa WSW 5mph /  8km/h 6.8mph /  11km/h 96% 0.07in /  1.80mm 0.00 W/m2 unknown
20:24 39.2 °F /  4.0 °C 39.2 °F /  4.0 °C 29.6in /  1003.9hPa WSW 6.2mph /  10km/h 8.1mph /  13km/h 96% 0.08in /  2.01mm 0.00 W/m2 unknown
20:29 39.2 °F /  4.0 °C 39.2 °F /  4.0 °C 29.6in /  1003.9hPa WSW 5.6mph /  9km/h 6.8mph /  11km/h 96% 0.08in /  2.01mm 0.00 W/m2 unknown
20:34 39.2 °F /  4.0 °C 39.2 °F /  4.0 °C 29.6in /  1003.6hPa West 3.1mph /  5km/h 3.7mph /  6km/h 96% 0.09in /  2.21mm 0.00 W/m2 unknown
20:39 39.2 °F /  4.0 °C 39.2 °F /  4.0 °C 29.6in /  1003.3hPa WNW 1.9mph /  3km/h 3.7mph /  6km/h 96% 0.1in /  2.59mm 0.00 W/m2 unknown
20:44 39.2 °F /  4.0 °C 39.2 °F /  4.0 °C 29.6in /  1003.0hPa NW 1.9mph /  3km/h 3.7mph /  6km/h 96% 0.1in /  2.59mm 0.00 W/m2 unknown
20:49 39.2 °F /  4.0 °C 39.2 °F /  4.0 °C 29.6in /  1002.7hPa NW 1.9mph /  3km/h 3.7mph /  6km/h 96% 0.1in /  2.59mm 0.00 W/m2 unknown
20:54 39.2 °F /  4.0 °C 39.2 °F /  4.0 °C 29.6in /  1002.6hPa WNW 2.5mph /  4km/h 3.7mph /  6km/h 96% 0.09in /  2.39mm 0.00 W/m2 unknown
20:59 39.2 °F /  4.0 °C 39.2 °F /  4.0 °C 29.6in /  1002.6hPa West 3.1mph /  5km/h 3.7mph /  6km/h 96% 0.09in /  2.21mm 0.00 W/m2 unknown
21:04 39.2 °F /  4.0 °C 39.2 °F /  4.0 °C 29.6in /  1002.7hPa West 4.3mph /  7km/h 6.2mph /  10km/h 96% 0.09in /  2.21mm 0.00 W/m2 unknown
21:09 39.2 °F /  4.0 °C 39.2 °F /  4.0 °C 29.6in /  1002.7hPa West 5mph /  8km/h 8.1mph /  13km/h 96% 0.08in /  2.01mm 0.00 W/m2 unknown
21:14 39.2 °F /  4.0 °C 39.2 °F /  4.0 °C 29.6in /  1002.7hPa West 6.2mph /  10km/h 8.1mph /  13km/h 96% 0.08in /  2.01mm 0.00 W/m2 unknown
21:19 39.2 °F /  4.0 °C 39.2 °F /  4.0 °C 29.6in /  1002.9hPa West 6.8mph /  11km/h 9.3mph /  15km/h 96% 0.08in /  2.01mm 0.00 W/m2 unknown
21:24 39.2 °F /  4.0 °C 39.2 °F /  4.0 °C 29.6in /  1003.0hPa West 6.8mph /  11km/h 9.3mph /  15km/h 96% 0.07in /  1.80mm 0.00 W/m2 unknown
21:29 39.2 °F /  4.0 °C 39.2 °F /  4.0 °C 29.6in /  1003.1hPa West 8.1mph /  13km/h 11.8mph /  19km/h 96% 0.07in /  1.80mm 0.00 W/m2 unknown
21:34 39.2 °F /  4.0 °C 39.2 °F /  4.0 °C 29.6in /  1003.4hPa WSW 6.8mph /  11km/h 11.8mph /  19km/h 96% 0.06in /  1.60mm 0.00 W/m2 unknown
21:39 39.2 °F /  4.0 °C 39.2 °F /  4.0 °C 29.6in /  1003.4hPa WSW 7.5mph /  12km/h 10.6mph /  17km/h 96% 0.06in /  1.60mm 0.00 W/m2 unknown
21:44 39.2 °F /  4.0 °C 39.2 °F /  4.0 °C 29.6in /  1003.4hPa West 9.3mph /  15km/h 11.8mph /  19km/h 96% 0.07in /  1.80mm 0.00 W/m2 unknown
21:49 39.2 °F /  4.0 °C 39.2 °F /  4.0 °C 29.6in /  1003.5hPa West 8.7mph /  14km/h 11.8mph /  19km/h 96% 0.09in /  2.21mm 0.00 W/m2 unknown
21:54 39.2 °F /  4.0 °C 39.2 °F /  4.0 °C 29.6in /  1003.4hPa West 8.7mph /  14km/h 11.8mph /  19km/h 96% 0.1in /  2.59mm 0.00 W/m2 unknown
21:59 39.2 °F /  4.0 °C 39.2 °F /  4.0 °C 29.6in /  1003.5hPa West 9.9mph /  16km/h 11.8mph /  19km/h 96% 0.11in /  2.79mm 0.00 W/m2 unknown
22:04 39.2 °F /  4.0 °C 39.2 °F /  4.0 °C 29.6in /  1003.6hPa West 9.3mph /  15km/h 13mph /  21km/h 96% 0.12in /  3.00mm 0.00 W/m2 unknown
22:09 39.2 °F /  4.0 °C 39.2 °F /  4.0 °C 29.6in /  1003.5hPa WNW 6.8mph /  11km/h 11.8mph /  19km/h 96% 0.13in /  3.20mm 0.00 W/m2 unknown
22:14 39.2 °F /  4.0 °C 39.2 °F /  4.0 °C 29.6in /  1003.3hPa WNW 6.2mph /  10km/h 8.1mph /  13km/h 96% 0.13in /  3.40mm 0.00 W/m2 unknown
22:19 39.2 °F /  4.0 °C 39.2 °F /  4.0 °C 29.6in /  1003.2hPa West 5.6mph /  9km/h 8.1mph /  13km/h 96% 0.14in /  3.61mm 0.00 W/m2 unknown
22:24 39.2 °F /  4.0 °C 39.2 °F /  4.0 °C 29.6in /  1003.2hPa West 5.6mph /  9km/h 6.8mph /  11km/h 96% 0.14in /  3.61mm 0.00 W/m2 unknown
22:29 39.2 °F /  4.0 °C 39.2 °F /  4.0 °C 29.6in /  1003.4hPa West 6.2mph /  10km/h 8.7mph /  14km/h 96% 0.14in /  3.61mm 0.00 W/m2 unknown
22:34 39.2 °F /  4.0 °C 39.2 °F /  4.0 °C 29.6in /  1003.4hPa West 8.1mph /  13km/h 10.6mph /  17km/h 96% 0.14in /  3.61mm 0.00 W/m2 unknown
22:39 39.2 °F /  4.0 °C 39.2 °F /  4.0 °C 29.6in /  1003.3hPa West 8.1mph /  13km/h 10.6mph /  17km/h 96% 0.13in /  3.40mm 0.00 W/m2 unknown
22:44 39.2 °F /  4.0 °C 39.2 °F /  4.0 °C 29.6in /  1003.2hPa WNW 9.3mph /  15km/h 14.3mph /  23km/h 96% 0.13in /  3.20mm 0.00 W/m2 unknown
22:49 39.2 °F /  4.0 °C 39.2 °F /  4.0 °C 29.6in /  1003.2hPa WNW 9.9mph /  16km/h 14.3mph /  23km/h 96% 0.1in /  2.59mm 0.00 W/m2 unknown
22:54 39.2 °F /  4.0 °C 39.2 °F /  4.0 °C 29.6in /  1003.2hPa WNW 9.9mph /  16km/h 14.3mph /  23km/h 96% 0.08in /  2.01mm 0.00 W/m2 unknown
22:59 39.2 °F /  4.0 °C 39.2 °F /  4.0 °C 29.6in /  1003.1hPa WNW 9.3mph /  15km/h 13mph /  21km/h 96% 0.06in /  1.60mm 0.00 W/m2 unknown
23:04 39.2 °F /  4.0 °C 39.2 °F /  4.0 °C 29.6in /  1003.2hPa WNW 9.9mph /  16km/h 13mph /  21km/h 96% 0.05in /  1.19mm 0.00 W/m2 unknown
23:09 39.2 °F /  4.0 °C 39.2 °F /  4.0 °C 29.6in /  1003.1hPa WNW 9.3mph /  15km/h 13mph /  21km/h 96% 0.04in /  0.99mm 0.00 W/m2 unknown
23:14 39.2 °F /  4.0 °C 39.2 °F /  4.0 °C 29.6in /  1003.1hPa WNW 9.9mph /  16km/h 13mph /  21km/h 96% 0.04in /  0.99mm 0.00 W/m2 unknown
23:19 39.2 °F /  4.0 °C 39.2 °F /  4.0 °C 29.6in /  1003.2hPa West 8.7mph /  14km/h 13mph /  21km/h 96% 0.02in /  0.61mm 0.00 W/m2 unknown
23:24 39.2 °F /  4.0 °C 39.2 °F /  4.0 °C 29.6in /  1003.2hPa West 8.7mph /  14km/h 11.8mph /  19km/h 96% 0.01in /  0.20mm 0.00 W/m2 unknown
23:29 39.2 °F /  4.0 °C 39.2 °F /  4.0 °C 29.6in /  1003.2hPa West 8.7mph /  14km/h 11.8mph /  19km/h 96% 0.01in /  0.20mm 0.00 W/m2 unknown
23:34 39.2 °F /  4.0 °C 39.2 °F /  4.0 °C 29.6in /  1003.2hPa West 8.7mph /  14km/h 11.8mph /  19km/h 96% 0in /  0.00mm 0.00 W/m2 unknown
23:39 39.2 °F /  4.0 °C 39.2 °F /  4.0 °C 29.6in /  1003.0hPa WNW 8.7mph /  14km/h 13mph /  21km/h 96% 0in /  0.00mm 0.00 W/m2 unknown
23:44 39.2 °F /  4.0 °C 39.2 °F /  4.0 °C 29.6in /  1002.9hPa West 9.3mph /  15km/h 14.3mph /  23km/h 96% 0in /  0.00mm 0.00 W/m2 unknown
23:49 39.2 °F /  4.0 °C 39.2 °F /  4.0 °C 29.6in /  1003.1hPa West 8.7mph /  14km/h 14.3mph /  23km/h 96% 0in /  0.00mm 0.00 W/m2 unknown
23:54 39.2 °F /  4.0 °C 39.2 °F /  4.0 °C 29.6in /  1003.1hPa WNW 10.6mph /  17km/h 13mph /  21km/h 96% 0in /  0.00mm 0.00 W/m2 unknown
23:59 39.2 °F /  4.0 °C 39.2 °F /  4.0 °C 29.6in /  1003.1hPa WNW 11.2mph /  18km/h 13mph /  21km/h 96% 0in /  0.00mm 0.00 W/m2 unknown
Stazione Meteorologica MeteoMincio Rivalta s/M (MN)
Con i complimenti di Weather Underground - 4 mb



METEO PILLOLE
Il luogo più nebbioso degli USA
Cape Disappointment - Washington
Per 2552 ore (106 giorni) all'anno in media è avvolto da nebbia fitta.
Share

Non seguire questo link o sarai bannato dal sito!